sensor_id;sensor_type;location;lat;lon;timestamp;temperature;humidity
4509;DHT22;2267;48.816;9.230;2023-03-05T00:01:13;5.70;94.70
4509;DHT22;2267;48.816;9.230;2023-03-05T00:03:41;5.70;94.70
4509;DHT22;2267;48.816;9.230;2023-03-05T00:06:09;5.70;94.80
4509;DHT22;2267;48.816;9.230;2023-03-05T00:08:35;5.70;95.00
4509;DHT22;2267;48.816;9.230;2023-03-05T00:11:05;5.70;94.90
4509;DHT22;2267;48.816;9.230;2023-03-05T00:13:32;5.70;94.90
4509;DHT22;2267;48.816;9.230;2023-03-05T00:16:02;5.70;94.90
4509;DHT22;2267;48.816;9.230;2023-03-05T00:18:29;5.70;95.00
4509;DHT22;2267;48.816;9.230;2023-03-05T00:20:56;5.70;94.90
4509;DHT22;2267;48.816;9.230;2023-03-05T00:23:23;5.70;94.90
4509;DHT22;2267;48.816;9.230;2023-03-05T00:25:50;5.70;94.90
4509;DHT22;2267;48.816;9.230;2023-03-05T00:28:17;5.70;94.90
4509;DHT22;2267;48.816;9.230;2023-03-05T00:30:44;5.70;94.90
4509;DHT22;2267;48.816;9.230;2023-03-05T00:33:12;5.70;95.00
4509;DHT22;2267;48.816;9.230;2023-03-05T00:35:44;5.70;94.90
4509;DHT22;2267;48.816;9.230;2023-03-05T00:38:12;5.70;94.90
4509;DHT22;2267;48.816;9.230;2023-03-05T00:40:40;5.70;94.90
4509;DHT22;2267;48.816;9.230;2023-03-05T00:43:07;5.70;94.90
4509;DHT22;2267;48.816;9.230;2023-03-05T00:45:35;5.70;95.30
4509;DHT22;2267;48.816;9.230;2023-03-05T00:48:03;5.80;95.00
4509;DHT22;2267;48.816;9.230;2023-03-05T00:50:29;5.80;95.10
4509;DHT22;2267;48.816;9.230;2023-03-05T00:52:56;5.80;95.10
4509;DHT22;2267;48.816;9.230;2023-03-05T00:55:23;5.80;95.10
4509;DHT22;2267;48.816;9.230;2023-03-05T00:57:50;5.70;94.90
4509;DHT22;2267;48.816;9.230;2023-03-05T01:00:17;5.80;94.90
4509;DHT22;2267;48.816;9.230;2023-03-05T01:02:44;5.70;94.90
4509;DHT22;2267;48.816;9.230;2023-03-05T01:05:12;5.80;95.00
4509;DHT22;2267;48.816;9.230;2023-03-05T01:07:39;5.80;95.10
4509;DHT22;2267;48.816;9.230;2023-03-05T01:10:07;5.80;95.20
4509;DHT22;2267;48.816;9.230;2023-03-05T01:12:34;5.80;95.10
4509;DHT22;2267;48.816;9.230;2023-03-05T01:15:01;5.80;95.00
4509;DHT22;2267;48.816;9.230;2023-03-05T01:17:28;5.80;95.00
4509;DHT22;2267;48.816;9.230;2023-03-05T01:19:55;5.80;95.10
4509;DHT22;2267;48.816;9.230;2023-03-05T01:22:21;5.80;95.20
4509;DHT22;2267;48.816;9.230;2023-03-05T01:24:48;5.80;95.30
4509;DHT22;2267;48.816;9.230;2023-03-05T01:27:15;5.80;95.30
4509;DHT22;2267;48.816;9.230;2023-03-05T01:29:42;5.80;95.30
4509;DHT22;2267;48.816;9.230;2023-03-05T01:32:08;5.80;95.30
4509;DHT22;2267;48.816;9.230;2023-03-05T01:34:36;5.80;95.40
4509;DHT22;2267;48.816;9.230;2023-03-05T01:37:03;5.80;95.40
4509;DHT22;2267;48.816;9.230;2023-03-05T01:39:30;5.80;95.30
4509;DHT22;2267;48.816;9.230;2023-03-05T01:41:57;5.80;95.40
4509;DHT22;2267;48.816;9.230;2023-03-05T01:44:26;5.80;95.30
4509;DHT22;2267;48.816;9.230;2023-03-05T01:46:53;5.80;95.40
4509;DHT22;2267;48.816;9.230;2023-03-05T01:49:24;5.80;95.50
4509;DHT22;2267;48.816;9.230;2023-03-05T01:52:13;5.80;95.50
4509;DHT22;2267;48.816;9.230;2023-03-05T01:54:51;5.80;95.50
4509;DHT22;2267;48.816;9.230;2023-03-05T01:58:07;5.80;95.50
4509;DHT22;2267;48.816;9.230;2023-03-05T02:00:20;5.80;95.50
4509;DHT22;2267;48.816;9.230;2023-03-05T02:02:49;5.80;95.40
4509;DHT22;2267;48.816;9.230;2023-03-05T02:05:43;5.80;95.40
4509;DHT22;2267;48.816;9.230;2023-03-05T02:08:15;5.70;95.40
4509;DHT22;2267;48.816;9.230;2023-03-05T02:10:45;5.70;95.50
4509;DHT22;2267;48.816;9.230;2023-03-05T02:13:17;5.70;95.60
4509;DHT22;2267;48.816;9.230;2023-03-05T02:15:44;5.70;95.70
4509;DHT22;2267;48.816;9.230;2023-03-05T02:18:13;5.70;95.60
4509;DHT22;2267;48.816;9.230;2023-03-05T02:23:13;5.70;95.70
4509;DHT22;2267;48.816;9.230;2023-03-05T02:25:40;5.70;95.70
4509;DHT22;2267;48.816;9.230;2023-03-05T02:28:37;5.70;95.90
4509;DHT22;2267;48.816;9.230;2023-03-05T02:31:09;5.70;95.80
4509;DHT22;2267;48.816;9.230;2023-03-05T02:33:38;5.70;95.90
4509;DHT22;2267;48.816;9.230;2023-03-05T02:36:06;5.70;95.90
4509;DHT22;2267;48.816;9.230;2023-03-05T02:38:33;5.70;95.90
4509;DHT22;2267;48.816;9.230;2023-03-05T02:41:00;5.70;96.00
4509;DHT22;2267;48.816;9.230;2023-03-05T02:43:26;5.70;96.10
4509;DHT22;2267;48.816;9.230;2023-03-05T02:45:53;5.70;96.10
4509;DHT22;2267;48.816;9.230;2023-03-05T02:48:20;5.70;96.10
4509;DHT22;2267;48.816;9.230;2023-03-05T02:50:47;5.70;96.20
4509;DHT22;2267;48.816;9.230;2023-03-05T02:53:14;5.70;96.20
4509;DHT22;2267;48.816;9.230;2023-03-05T02:55:41;5.70;96.20
4509;DHT22;2267;48.816;9.230;2023-03-05T02:58:08;5.70;96.30
4509;DHT22;2267;48.816;9.230;2023-03-05T03:00:35;5.70;96.30
4509;DHT22;2267;48.816;9.230;2023-03-05T03:03:01;5.70;96.30
4509;DHT22;2267;48.816;9.230;2023-03-05T03:05:28;5.70;96.30
4509;DHT22;2267;48.816;9.230;2023-03-05T03:07:55;5.70;96.40
4509;DHT22;2267;48.816;9.230;2023-03-05T03:10:22;5.70;96.30
4509;DHT22;2267;48.816;9.230;2023-03-05T03:12:48;5.70;96.40
4509;DHT22;2267;48.816;9.230;2023-03-05T03:15:16;5.70;96.50
4509;DHT22;2267;48.816;9.230;2023-03-05T03:17:43;5.70;96.50
4509;DHT22;2267;48.816;9.230;2023-03-05T03:20:13;5.70;96.60
4509;DHT22;2267;48.816;9.230;2023-03-05T03:22:41;5.70;96.50
4509;DHT22;2267;48.816;9.230;2023-03-05T03:25:09;5.70;96.40
4509;DHT22;2267;48.816;9.230;2023-03-05T03:27:36;5.70;96.40
4509;DHT22;2267;48.816;9.230;2023-03-05T03:30:04;5.70;96.50
4509;DHT22;2267;48.816;9.230;2023-03-05T03:32:32;5.70;96.50
4509;DHT22;2267;48.816;9.230;2023-03-05T03:34:59;5.70;96.50
4509;DHT22;2267;48.816;9.230;2023-03-05T03:37:26;5.70;96.60
4509;DHT22;2267;48.816;9.230;2023-03-05T03:39:53;5.70;96.60
4509;DHT22;2267;48.816;9.230;2023-03-05T03:42:21;5.70;96.60
4509;DHT22;2267;48.816;9.230;2023-03-05T03:44:49;5.70;96.70
4509;DHT22;2267;48.816;9.230;2023-03-05T03:47:16;5.70;96.80
4509;DHT22;2267;48.816;9.230;2023-03-05T03:49:43;5.70;96.90
4509;DHT22;2267;48.816;9.230;2023-03-05T03:52:10;5.70;96.80
4509;DHT22;2267;48.816;9.230;2023-03-05T03:54:37;5.70;96.90
4509;DHT22;2267;48.816;9.230;2023-03-05T03:57:04;5.70;96.90
4509;DHT22;2267;48.816;9.230;2023-03-05T03:59:31;5.70;96.90
4509;DHT22;2267;48.816;9.230;2023-03-05T04:01:57;5.70;96.90
4509;DHT22;2267;48.816;9.230;2023-03-05T04:04:24;5.70;96.90
4509;DHT22;2267;48.816;9.230;2023-03-05T04:06:52;5.70;96.90
4509;DHT22;2267;48.816;9.230;2023-03-05T04:09:19;5.70;97.00
4509;DHT22;2267;48.816;9.230;2023-03-05T04:11:45;5.70;97.10
4509;DHT22;2267;48.816;9.230;2023-03-05T04:14:12;5.70;97.10
4509;DHT22;2267;48.816;9.230;2023-03-05T04:16:39;5.70;97.20
4509;DHT22;2267;48.816;9.230;2023-03-05T04:19:06;5.70;97.20
4509;DHT22;2267;48.816;9.230;2023-03-05T04:21:32;5.70;97.10
4509;DHT22;2267;48.816;9.230;2023-03-05T04:23:59;5.70;97.30
4509;DHT22;2267;48.816;9.230;2023-03-05T04:26:26;5.70;97.30
4509;DHT22;2267;48.816;9.230;2023-03-05T04:28:53;5.70;97.30
4509;DHT22;2267;48.816;9.230;2023-03-05T04:31:19;5.70;97.40
4509;DHT22;2267;48.816;9.230;2023-03-05T04:33:46;5.70;97.40
4509;DHT22;2267;48.816;9.230;2023-03-05T04:36:13;5.70;97.40
4509;DHT22;2267;48.816;9.230;2023-03-05T04:38:40;5.70;97.50
4509;DHT22;2267;48.816;9.230;2023-03-05T04:41:06;5.70;97.50
4509;DHT22;2267;48.816;9.230;2023-03-05T04:43:33;5.70;97.50
4509;DHT22;2267;48.816;9.230;2023-03-05T04:46:00;5.70;97.50
4509;DHT22;2267;48.816;9.230;2023-03-05T04:48:27;5.70;97.60
4509;DHT22;2267;48.816;9.230;2023-03-05T04:50:53;5.70;97.60
4509;DHT22;2267;48.816;9.230;2023-03-05T04:53:20;5.70;97.60
4509;DHT22;2267;48.816;9.230;2023-03-05T04:55:54;5.70;97.60
4509;DHT22;2267;48.816;9.230;2023-03-05T04:58:22;5.70;97.70
4509;DHT22;2267;48.816;9.230;2023-03-05T05:00:49;5.70;97.70
4509;DHT22;2267;48.816;9.230;2023-03-05T05:03:15;5.70;97.70
4509;DHT22;2267;48.816;9.230;2023-03-05T05:05:42;5.70;97.70
4509;DHT22;2267;48.816;9.230;2023-03-05T05:08:09;5.70;97.80
4509;DHT22;2267;48.816;9.230;2023-03-05T05:10:36;5.70;97.80
4509;DHT22;2267;48.816;9.230;2023-03-05T05:13:06;5.70;97.80
4509;DHT22;2267;48.816;9.230;2023-03-05T05:15:33;5.70;97.90
4509;DHT22;2267;48.816;9.230;2023-03-05T05:18:00;5.70;98.00
4509;DHT22;2267;48.816;9.230;2023-03-05T05:20:27;5.70;97.90
4509;DHT22;2267;48.816;9.230;2023-03-05T05:22:54;5.70;97.90
4509;DHT22;2267;48.816;9.230;2023-03-05T05:25:20;5.70;98.00
4509;DHT22;2267;48.816;9.230;2023-03-05T05:27:47;5.70;98.00
4509;DHT22;2267;48.816;9.230;2023-03-05T05:30:14;5.70;98.00
4509;DHT22;2267;48.816;9.230;2023-03-05T05:32:41;5.70;98.00
4509;DHT22;2267;48.816;9.230;2023-03-05T05:35:09;5.70;98.00
4509;DHT22;2267;48.816;9.230;2023-03-05T05:37:36;5.80;98.10
4509;DHT22;2267;48.816;9.230;2023-03-05T05:40:03;5.70;98.00
4509;DHT22;2267;48.816;9.230;2023-03-05T05:42:31;5.70;98.00
4509;DHT22;2267;48.816;9.230;2023-03-05T05:44:58;5.70;98.00
4509;DHT22;2267;48.816;9.230;2023-03-05T05:47:25;5.80;98.10
4509;DHT22;2267;48.816;9.230;2023-03-05T05:49:52;5.80;98.10
4509;DHT22;2267;48.816;9.230;2023-03-05T05:52:19;5.80;98.10
4509;DHT22;2267;48.816;9.230;2023-03-05T05:54:46;5.70;98.00
4509;DHT22;2267;48.816;9.230;2023-03-05T05:57:13;5.80;98.10
4509;DHT22;2267;48.816;9.230;2023-03-05T05:59:40;5.70;98.10
4509;DHT22;2267;48.816;9.230;2023-03-05T06:02:07;5.70;98.10
4509;DHT22;2267;48.816;9.230;2023-03-05T06:04:35;5.70;98.20
4509;DHT22;2267;48.816;9.230;2023-03-05T06:07:02;5.70;98.20
4509;DHT22;2267;48.816;9.230;2023-03-05T06:09:29;5.70;98.30
4509;DHT22;2267;48.816;9.230;2023-03-05T06:11:56;5.70;98.30
4509;DHT22;2267;48.816;9.230;2023-03-05T06:14:23;5.70;98.30
4509;DHT22;2267;48.816;9.230;2023-03-05T06:16:49;5.70;98.30
4509;DHT22;2267;48.816;9.230;2023-03-05T06:19:16;5.70;98.30
4509;DHT22;2267;48.816;9.230;2023-03-05T06:21:43;5.70;98.30
4509;DHT22;2267;48.816;9.230;2023-03-05T06:24:10;5.70;98.40
4509;DHT22;2267;48.816;9.230;2023-03-05T06:26:37;5.70;98.40
4509;DHT22;2267;48.816;9.230;2023-03-05T06:29:04;5.70;98.40
4509;DHT22;2267;48.816;9.230;2023-03-05T06:31:31;5.70;98.30
4509;DHT22;2267;48.816;9.230;2023-03-05T06:34:01;5.70;98.30
4509;DHT22;2267;48.816;9.230;2023-03-05T06:36:28;5.70;98.40
4509;DHT22;2267;48.816;9.230;2023-03-05T06:38:56;5.70;98.30
4509;DHT22;2267;48.816;9.230;2023-03-05T06:41:26;5.70;98.40
4509;DHT22;2267;48.816;9.230;2023-03-05T06:43:54;5.70;98.40
4509;DHT22;2267;48.816;9.230;2023-03-05T06:46:23;5.70;98.40
4509;DHT22;2267;48.816;9.230;2023-03-05T06:48:51;5.80;98.50
4509;DHT22;2267;48.816;9.230;2023-03-05T06:51:21;5.80;98.50
4509;DHT22;2267;48.816;9.230;2023-03-05T06:53:48;5.80;98.50
4509;DHT22;2267;48.816;9.230;2023-03-05T06:56:16;5.80;98.80
4509;DHT22;2267;48.816;9.230;2023-03-05T06:58:45;5.80;98.60
4509;DHT22;2267;48.816;9.230;2023-03-05T07:01:13;5.80;98.40
4509;DHT22;2267;48.816;9.230;2023-03-05T07:03:41;5.80;98.40
4509;DHT22;2267;48.816;9.230;2023-03-05T07:06:11;5.80;98.30
4509;DHT22;2267;48.816;9.230;2023-03-05T07:08:39;5.80;98.20
4509;DHT22;2267;48.816;9.230;2023-03-05T07:11:14;5.80;98.30
4509;DHT22;2267;48.816;9.230;2023-03-05T07:13:41;5.90;98.30
4509;DHT22;2267;48.816;9.230;2023-03-05T07:16:14;5.90;98.20
4509;DHT22;2267;48.816;9.230;2023-03-05T07:18:41;5.90;98.20
4509;DHT22;2267;48.816;9.230;2023-03-05T07:21:09;5.90;98.20
4509;DHT22;2267;48.816;9.230;2023-03-05T07:23:38;5.90;98.20
4509;DHT22;2267;48.816;9.230;2023-03-05T07:26:06;5.90;98.10
4509;DHT22;2267;48.816;9.230;2023-03-05T07:28:33;5.90;98.10
4509;DHT22;2267;48.816;9.230;2023-03-05T07:31:03;5.90;98.10
4509;DHT22;2267;48.816;9.230;2023-03-05T07:33:30;5.90;98.10
4509;DHT22;2267;48.816;9.230;2023-03-05T07:35:57;5.90;98.10
4509;DHT22;2267;48.816;9.230;2023-03-05T07:38:24;5.90;98.00
4509;DHT22;2267;48.816;9.230;2023-03-05T07:40:51;5.90;97.90
4509;DHT22;2267;48.816;9.230;2023-03-05T07:43:18;6.00;97.90
4509;DHT22;2267;48.816;9.230;2023-03-05T07:45:45;6.00;97.90
4509;DHT22;2267;48.816;9.230;2023-03-05T07:48:14;6.00;97.90
4509;DHT22;2267;48.816;9.230;2023-03-05T07:50:44;6.00;97.90
4509;DHT22;2267;48.816;9.230;2023-03-05T07:53:10;6.00;97.80
4509;DHT22;2267;48.816;9.230;2023-03-05T07:55:46;6.00;97.80
4509;DHT22;2267;48.816;9.230;2023-03-05T07:58:13;6.10;97.80
4509;DHT22;2267;48.816;9.230;2023-03-05T08:00:43;6.10;97.80
4509;DHT22;2267;48.816;9.230;2023-03-05T08:03:10;6.10;97.80
4509;DHT22;2267;48.816;9.230;2023-03-05T08:05:40;6.10;97.80
4509;DHT22;2267;48.816;9.230;2023-03-05T08:08:08;6.10;97.80
4509;DHT22;2267;48.816;9.230;2023-03-05T08:10:36;6.10;97.70
4509;DHT22;2267;48.816;9.230;2023-03-05T08:13:03;6.10;97.60
4509;DHT22;2267;48.816;9.230;2023-03-05T08:15:30;6.20;98.00
4509;DHT22;2267;48.816;9.230;2023-03-05T08:18:00;6.20;97.70
4509;DHT22;2267;48.816;9.230;2023-03-05T08:20:27;6.20;97.70
4509;DHT22;2267;48.816;9.230;2023-03-05T08:22:53;6.20;97.70
4509;DHT22;2267;48.816;9.230;2023-03-05T08:25:21;6.20;97.70
4509;DHT22;2267;48.816;9.230;2023-03-05T08:27:48;6.20;97.70
4509;DHT22;2267;48.816;9.230;2023-03-05T08:30:18;6.30;97.70
4509;DHT22;2267;48.816;9.230;2023-03-05T08:32:48;6.20;97.60
4509;DHT22;2267;48.816;9.230;2023-03-05T08:35:15;6.30;97.60
4509;DHT22;2267;48.816;9.230;2023-03-05T08:37:41;6.30;97.50
4509;DHT22;2267;48.816;9.230;2023-03-05T08:40:09;6.30;97.50
4509;DHT22;2267;48.816;9.230;2023-03-05T08:42:36;6.30;97.50
4509;DHT22;2267;48.816;9.230;2023-03-05T08:45:03;6.30;97.60
4509;DHT22;2267;48.816;9.230;2023-03-05T08:47:30;6.40;97.60
4509;DHT22;2267;48.816;9.230;2023-03-05T08:49:56;6.40;97.50
4509;DHT22;2267;48.816;9.230;2023-03-05T08:52:24;6.40;97.50
4509;DHT22;2267;48.816;9.230;2023-03-05T08:54:52;6.40;97.30
4509;DHT22;2267;48.816;9.230;2023-03-05T08:57:19;6.40;97.30
4509;DHT22;2267;48.816;9.230;2023-03-05T08:59:47;6.40;97.30
4509;DHT22;2267;48.816;9.230;2023-03-05T09:02:14;6.40;97.20
4509;DHT22;2267;48.816;9.230;2023-03-05T09:04:41;6.50;97.20
4509;DHT22;2267;48.816;9.230;2023-03-05T09:07:08;6.50;97.20
4509;DHT22;2267;48.816;9.230;2023-03-05T09:09:38;6.50;97.20
4509;DHT22;2267;48.816;9.230;2023-03-05T09:12:06;6.60;97.30
4509;DHT22;2267;48.816;9.230;2023-03-05T09:14:32;6.60;97.20
4509;DHT22;2267;48.816;9.230;2023-03-05T09:17:01;6.60;97.20
4509;DHT22;2267;48.816;9.230;2023-03-05T09:19:28;6.60;97.10
4509;DHT22;2267;48.816;9.230;2023-03-05T09:21:55;6.60;97.00
4509;DHT22;2267;48.816;9.230;2023-03-05T09:24:25;6.70;97.00
4509;DHT22;2267;48.816;9.230;2023-03-05T09:26:52;6.70;96.90
4509;DHT22;2267;48.816;9.230;2023-03-05T09:29:19;6.70;96.80
4509;DHT22;2267;48.816;9.230;2023-03-05T09:31:49;6.70;96.80
4509;DHT22;2267;48.816;9.230;2023-03-05T09:34:16;6.70;96.70
4509;DHT22;2267;48.816;9.230;2023-03-05T09:36:43;6.70;96.70
4509;DHT22;2267;48.816;9.230;2023-03-05T09:39:13;6.70;96.60
4509;DHT22;2267;48.816;9.230;2023-03-05T09:52:33;6.80;96.30
4509;DHT22;2267;48.816;9.230;2023-03-05T09:55:02;6.80;96.20
4509;DHT22;2267;48.816;9.230;2023-03-05T09:57:45;6.80;96.10
4509;DHT22;2267;48.816;9.230;2023-03-05T10:03:00;7.80;99.90
4509;DHT22;2267;48.816;9.230;2023-03-05T10:08:13;8.70;99.80
4509;DHT22;2267;48.816;9.230;2023-03-05T10:10:48;8.50;97.90
4509;DHT22;2267;48.816;9.230;2023-03-05T10:13:26;8.30;97.20
4509;DHT22;2267;48.816;9.230;2023-03-05T10:18:58;8.00;96.50
4509;DHT22;2267;48.816;9.230;2023-03-05T10:24:24;7.70;96.30
4509;DHT22;2267;48.816;9.230;2023-03-05T10:27:04;7.70;96.30
4509;DHT22;2267;48.816;9.230;2023-03-05T10:40:35;7.40;96.30
4509;DHT22;2267;48.816;9.230;2023-03-05T10:43:35;7.30;96.30
4509;DHT22;2267;48.816;9.230;2023-03-05T10:46:04;7.30;96.40
4509;DHT22;2267;48.816;9.230;2023-03-05T10:51:16;7.30;96.50
4509;DHT22;2267;48.816;9.230;2023-03-05T10:53:54;7.20;96.50
4509;DHT22;2267;48.816;9.230;2023-03-05T10:56:24;7.20;96.50
4509;DHT22;2267;48.816;9.230;2023-03-05T10:58:51;7.20;96.50
4509;DHT22;2267;48.816;9.230;2023-03-05T11:01:22;7.20;96.40
4509;DHT22;2267;48.816;9.230;2023-03-05T11:06:42;7.20;96.40
4509;DHT22;2267;48.816;9.230;2023-03-05T11:12:19;7.20;96.40
4509;DHT22;2267;48.816;9.230;2023-03-05T11:17:33;7.20;96.40
4509;DHT22;2267;48.816;9.230;2023-03-05T11:20:35;7.20;96.40
4509;DHT22;2267;48.816;9.230;2023-03-05T11:23:18;7.10;96.30
4509;DHT22;2267;48.816;9.230;2023-03-05T11:25:55;7.10;96.40
4509;DHT22;2267;48.816;9.230;2023-03-05T11:31:05;7.10;96.50
4509;DHT22;2267;48.816;9.230;2023-03-05T11:33:36;7.10;96.50
4509;DHT22;2267;48.816;9.230;2023-03-05T11:36:25;7.10;96.50
4509;DHT22;2267;48.816;9.230;2023-03-05T11:38:58;7.10;96.50
4509;DHT22;2267;48.816;9.230;2023-03-05T11:41:40;7.10;96.40
4509;DHT22;2267;48.816;9.230;2023-03-05T11:47:26;7.10;96.20
4509;DHT22;2267;48.816;9.230;2023-03-05T11:50:09;7.10;96.10
4509;DHT22;2267;48.816;9.230;2023-03-05T12:00:47;7.10;95.90
4509;DHT22;2267;48.816;9.230;2023-03-05T12:03:17;7.10;95.80
4509;DHT22;2267;48.816;9.230;2023-03-05T12:05:48;7.10;95.60
4509;DHT22;2267;48.816;9.230;2023-03-05T12:08:21;7.10;95.70
4509;DHT22;2267;48.816;9.230;2023-03-05T12:10:51;7.10;95.60
4509;DHT22;2267;48.816;9.230;2023-03-05T12:13:31;7.20;95.60
4509;DHT22;2267;48.816;9.230;2023-03-05T12:26:15;7.20;94.70
4509;DHT22;2267;48.816;9.230;2023-03-05T12:31:38;7.20;94.80
4509;DHT22;2267;48.816;9.230;2023-03-05T12:37:13;7.10;94.60
4509;DHT22;2267;48.816;9.230;2023-03-05T12:40:01;7.10;94.50
4509;DHT22;2267;48.816;9.230;2023-03-05T12:47:42;7.10;94.60
4509;DHT22;2267;48.816;9.230;2023-03-05T12:58:36;7.10;94.90
4509;DHT22;2267;48.816;9.230;2023-03-05T13:03:49;7.10;94.40
4509;DHT22;2267;48.816;9.230;2023-03-05T13:09:02;7.10;94.50
4509;DHT22;2267;48.816;9.230;2023-03-05T13:11:32;7.00;94.40
4509;DHT22;2267;48.816;9.230;2023-03-05T13:14:01;7.00;94.50
4509;DHT22;2267;48.816;9.230;2023-03-05T13:16:36;7.10;94.60
4509;DHT22;2267;48.816;9.230;2023-03-05T13:19:03;7.10;94.40
4509;DHT22;2267;48.816;9.230;2023-03-05T13:21:40;7.10;94.30
4509;DHT22;2267;48.816;9.230;2023-03-05T13:24:16;7.10;94.30
4509;DHT22;2267;48.816;9.230;2023-03-05T13:26:43;7.10;94.20
4509;DHT22;2267;48.816;9.230;2023-03-05T13:29:14;7.10;94.30
4509;DHT22;2267;48.816;9.230;2023-03-05T13:34:42;7.10;94.40
4509;DHT22;2267;48.816;9.230;2023-03-05T13:37:20;7.20;94.40
4509;DHT22;2267;48.816;9.230;2023-03-05T13:42:29;7.10;94.20
4509;DHT22;2267;48.816;9.230;2023-03-05T13:45:21;7.10;94.20
4509;DHT22;2267;48.816;9.230;2023-03-05T13:48:03;7.10;94.20
4509;DHT22;2267;48.816;9.230;2023-03-05T13:50:34;7.20;94.20
4509;DHT22;2267;48.816;9.230;2023-03-05T13:53:23;7.10;94.20
4509;DHT22;2267;48.816;9.230;2023-03-05T13:55:53;7.20;94.30
4509;DHT22;2267;48.816;9.230;2023-03-05T14:03:51;7.10;93.90
4509;DHT22;2267;48.816;9.230;2023-03-05T14:06:20;7.10;94.00
4509;DHT22;2267;48.816;9.230;2023-03-05T14:08:52;7.10;94.20
4509;DHT22;2267;48.816;9.230;2023-03-05T14:11:19;7.10;94.40
4509;DHT22;2267;48.816;9.230;2023-03-05T14:13:47;7.20;94.40
4509;DHT22;2267;48.816;9.230;2023-03-05T14:16:29;7.20;94.30
4509;DHT22;2267;48.816;9.230;2023-03-05T14:19:00;7.10;94.10
4509;DHT22;2267;48.816;9.230;2023-03-05T14:21:48;7.10;94.20
4509;DHT22;2267;48.816;9.230;2023-03-05T14:24:24;7.10;94.30
4509;DHT22;2267;48.816;9.230;2023-03-05T14:26:53;7.10;94.40
4509;DHT22;2267;48.816;9.230;2023-03-05T14:29:26;7.10;94.40
4509;DHT22;2267;48.816;9.230;2023-03-05T14:31:57;7.10;94.50
4509;DHT22;2267;48.816;9.230;2023-03-05T14:34:31;7.10;94.50
4509;DHT22;2267;48.816;9.230;2023-03-05T14:37:01;7.10;94.40
4509;DHT22;2267;48.816;9.230;2023-03-05T14:42:25;7.10;94.50
4509;DHT22;2267;48.816;9.230;2023-03-05T14:44:53;7.10;94.70
4509;DHT22;2267;48.816;9.230;2023-03-05T14:47:23;7.10;94.80
4509;DHT22;2267;48.816;9.230;2023-03-05T14:49:50;7.10;94.80
4509;DHT22;2267;48.816;9.230;2023-03-05T14:52:19;7.10;94.80
4509;DHT22;2267;48.816;9.230;2023-03-05T14:54:47;7.00;94.80
4509;DHT22;2267;48.816;9.230;2023-03-05T14:57:26;7.10;94.90
4509;DHT22;2267;48.816;9.230;2023-03-05T14:59:53;7.10;95.00
4509;DHT22;2267;48.816;9.230;2023-03-05T15:02:23;7.10;95.00
4509;DHT22;2267;48.816;9.230;2023-03-05T15:04:51;7.10;95.40
4509;DHT22;2267;48.816;9.230;2023-03-05T15:07:30;7.00;95.00
4509;DHT22;2267;48.816;9.230;2023-03-05T15:09:57;7.10;95.00
4509;DHT22;2267;48.816;9.230;2023-03-05T15:12:25;7.10;95.10
4509;DHT22;2267;48.816;9.230;2023-03-05T15:14:54;7.10;95.30
4509;DHT22;2267;48.816;9.230;2023-03-05T15:17:42;7.10;95.20
4509;DHT22;2267;48.816;9.230;2023-03-05T15:20:14;7.10;95.20
4509;DHT22;2267;48.816;9.230;2023-03-05T15:22:41;7.10;95.10
4509;DHT22;2267;48.816;9.230;2023-03-05T15:25:08;7.10;95.10
4509;DHT22;2267;48.816;9.230;2023-03-05T15:27:35;7.10;95.10
4509;DHT22;2267;48.816;9.230;2023-03-05T15:30:04;7.00;95.10
4509;DHT22;2267;48.816;9.230;2023-03-05T15:32:31;7.10;95.10
4509;DHT22;2267;48.816;9.230;2023-03-05T15:34:58;7.10;95.00
4509;DHT22;2267;48.816;9.230;2023-03-05T15:37:25;7.10;95.00
4509;DHT22;2267;48.816;9.230;2023-03-05T15:39:52;7.10;95.00
4509;DHT22;2267;48.816;9.230;2023-03-05T15:42:19;7.00;94.90
4509;DHT22;2267;48.816;9.230;2023-03-05T15:44:46;7.10;94.90
4509;DHT22;2267;48.816;9.230;2023-03-05T15:47:13;7.00;95.00
4509;DHT22;2267;48.816;9.230;2023-03-05T15:49:40;7.00;94.90
4509;DHT22;2267;48.816;9.230;2023-03-05T15:52:07;7.00;94.90
4509;DHT22;2267;48.816;9.230;2023-03-05T15:54:34;7.00;94.80
4509;DHT22;2267;48.816;9.230;2023-03-05T15:57:03;7.00;94.80
4509;DHT22;2267;48.816;9.230;2023-03-05T15:59:33;7.00;94.80
4509;DHT22;2267;48.816;9.230;2023-03-05T16:02:00;7.00;94.80
4509;DHT22;2267;48.816;9.230;2023-03-05T16:04:27;6.90;94.80
4509;DHT22;2267;48.816;9.230;2023-03-05T16:06:55;7.00;95.00
4509;DHT22;2267;48.816;9.230;2023-03-05T16:09:26;7.00;95.00
4509;DHT22;2267;48.816;9.230;2023-03-05T16:11:55;7.00;95.00
4509;DHT22;2267;48.816;9.230;2023-03-05T16:14:24;6.90;94.90
4509;DHT22;2267;48.816;9.230;2023-03-05T16:16:52;6.90;94.90
4509;DHT22;2267;48.816;9.230;2023-03-05T16:19:21;6.90;94.90
4509;DHT22;2267;48.816;9.230;2023-03-05T16:21:48;6.90;94.90
4509;DHT22;2267;48.816;9.230;2023-03-05T16:24:16;6.90;95.00
4509;DHT22;2267;48.816;9.230;2023-03-05T16:26:43;7.00;95.00
4509;DHT22;2267;48.816;9.230;2023-03-05T16:29:10;6.90;94.90
4509;DHT22;2267;48.816;9.230;2023-03-05T16:31:37;6.90;94.90
4509;DHT22;2267;48.816;9.230;2023-03-05T16:34:06;6.90;94.90
4509;DHT22;2267;48.816;9.230;2023-03-05T16:36:33;6.90;94.80
4509;DHT22;2267;48.816;9.230;2023-03-05T16:39:03;6.90;94.90
4509;DHT22;2267;48.816;9.230;2023-03-05T16:41:30;6.90;95.10
4509;DHT22;2267;48.816;9.230;2023-03-05T16:43:57;6.90;94.90
4509;DHT22;2267;48.816;9.230;2023-03-05T16:46:29;6.90;94.90
4509;DHT22;2267;48.816;9.230;2023-03-05T16:49:00;6.90;94.90
4509;DHT22;2267;48.816;9.230;2023-03-05T16:51:27;6.90;94.90
4509;DHT22;2267;48.816;9.230;2023-03-05T16:53:54;6.80;94.90
4509;DHT22;2267;48.816;9.230;2023-03-05T16:56:22;6.80;94.90
4509;DHT22;2267;48.816;9.230;2023-03-05T16:58:49;6.80;94.90
4509;DHT22;2267;48.816;9.230;2023-03-05T17:01:19;6.80;95.00
4509;DHT22;2267;48.816;9.230;2023-03-05T17:03:47;6.80;95.20
4509;DHT22;2267;48.816;9.230;2023-03-05T17:06:15;6.80;95.30
4509;DHT22;2267;48.816;9.230;2023-03-05T17:08:44;6.80;95.30
4509;DHT22;2267;48.816;9.230;2023-03-05T17:11:12;6.80;95.30
4509;DHT22;2267;48.816;9.230;2023-03-05T17:13:40;6.80;95.40
4509;DHT22;2267;48.816;9.230;2023-03-05T17:16:08;6.80;95.30
4509;DHT22;2267;48.816;9.230;2023-03-05T17:18:35;6.80;95.20
4509;DHT22;2267;48.816;9.230;2023-03-05T17:21:03;6.80;95.20
4509;DHT22;2267;48.816;9.230;2023-03-05T17:23:30;6.80;95.20
4509;DHT22;2267;48.816;9.230;2023-03-05T17:25:57;6.80;95.00
4509;DHT22;2267;48.816;9.230;2023-03-05T17:28:24;6.80;94.90
4509;DHT22;2267;48.816;9.230;2023-03-05T17:30:52;6.80;94.80
4509;DHT22;2267;48.816;9.230;2023-03-05T17:33:18;6.80;95.00
4509;DHT22;2267;48.816;9.230;2023-03-05T17:35:45;6.80;95.00
4509;DHT22;2267;48.816;9.230;2023-03-05T17:38:13;6.80;95.00
4509;DHT22;2267;48.816;9.230;2023-03-05T17:40:39;6.80;95.10
4509;DHT22;2267;48.816;9.230;2023-03-05T17:43:07;6.70;95.10
4509;DHT22;2267;48.816;9.230;2023-03-05T17:45:34;6.70;95.00
4509;DHT22;2267;48.816;9.230;2023-03-05T17:48:01;6.80;95.10
4509;DHT22;2267;48.816;9.230;2023-03-05T17:50:29;6.80;95.10
4509;DHT22;2267;48.816;9.230;2023-03-05T17:52:55;6.70;95.00
4509;DHT22;2267;48.816;9.230;2023-03-05T17:55:22;6.70;95.00
4509;DHT22;2267;48.816;9.230;2023-03-05T17:57:51;6.70;95.00
4509;DHT22;2267;48.816;9.230;2023-03-05T18:00:20;6.70;95.00
4509;DHT22;2267;48.816;9.230;2023-03-05T18:02:48;6.70;95.00
4509;DHT22;2267;48.816;9.230;2023-03-05T18:05:17;6.70;95.10
4509;DHT22;2267;48.816;9.230;2023-03-05T18:07:44;6.70;95.10
4509;DHT22;2267;48.816;9.230;2023-03-05T18:10:12;6.70;95.10
4509;DHT22;2267;48.816;9.230;2023-03-05T18:12:40;6.70;95.10
4509;DHT22;2267;48.816;9.230;2023-03-05T18:15:09;6.70;95.10
4509;DHT22;2267;48.816;9.230;2023-03-05T18:17:36;6.70;95.10
4509;DHT22;2267;48.816;9.230;2023-03-05T18:20:04;6.70;95.10